Flight Track Log - Related Links

Times and Time Zones

All times are in EDT time to prevent confusion due to time zone crossing. See the AWI3688 flight status page for this flight to view local times or setup timezone preferences in your user account.

Time Position Orientation Groundspeed Altitude Reporting Facility
EDT Latitude Longitude Course Direction KTS MPH feet Rate Location/Type
Sat 11:55:42 AM 39.8833 -75.2167 North 146 168 700  Level Philadelphia TRACON
Sat 11:56:18 AM 39.8667 -75.1833 123° Southeast 194 223 2,200 2,500 Climbing Philadelphia TRACON
Sat 11:57:18 AM 39.8667 -75.1167 90° East 220 253 4,700 2,387 Climbing Philadelphia TRACON
Sat 11:58:00 AM 39.7882 -74.7245 105° East  Level FlightAware Approximate
Sat 11:59:00 AM 39.8488 -74.6346 37° Northeast  Level FlightAware Approximate
Sat 11:59:19 AM 39.8292 -74.9444 106° East 250 288 9,400  Level New York Center
Sat 12:00:00 PM 39.9330 -74.5667 North  Level FlightAware Approximate
Sat 12:00:19 PM 39.8122 -74.8353 101° East 265 305 11,200  Level New York Center
Sat 12:01:19 PM 39.8053 -74.7294 95° East 294 338 12,900 2,269 Climbing New York Center
Sat 12:02:18 PM 39.8664 -74.6492 45° Northeast 280 322 15,700 2,471 Climbing New York Center
Sat 12:03:18 PM 39.9356 -74.5772 39° Northeast 287 330 17,800 1,918 Climbing New York Center
Sat 12:04:20 PM 40.0211 -74.5033 33° Northeast 309 356 19,600 1,613 Climbing New York Center
Sat 12:05:17 PM 40.0794 -74.4358 42° Northeast 315 362 21,000 1,462 Climbing New York Center
Sat 12:06:19 PM 40.1547 -74.3611 37° Northeast 322 371 22,500 1,328 Climbing New York Center
Sat 12:07:19 PM 40.2300 -74.2861 37° Northeast 328 377 23,700 763 Climbing New York Center
Sat 12:08:17 PM 40.3053 -74.2111 37° Northeast 335 386 24,000 153 Climbing New York Center
Sat 12:09:17 PM 40.3847 -74.1306 38° Northeast 342 394 24,000  Level New York Center
Sat 12:10:17 PM 40.4597 -74.0578 36° Northeast 342 394 24,000  Level New York Center
Sat 12:12:44 PM 40.6689 -73.9394 23° Northeast 328 377 24,000  Level Boston Center
Sat 12:13:44 PM 40.7572 -73.8894 23° Northeast 328 377 24,000  Level Boston Center
Sat 12:14:44 PM 40.8353 -73.8117 37° Northeast 333 383 24,000 -150 Level Boston Center
Sat 12:15:44 PM 40.9072 -73.7281 41° Northeast 338 389 23,700 -500 Descending Boston Center
Sat 12:16:44 PM 40.9769 -73.6414 43° Northeast 338 389 23,000 -350 Descending Boston Center
Sat 12:17:44 PM 41.0567 -73.5853 28° Northeast 338 389 23,000 -350 Level Boston Center
Sat 12:18:44 PM 41.1444 -73.5564 14° North 318 366 22,300 -900 Descending Boston Center
Sat 12:19:44 PM 41.2361 -73.5525 North 313 360 21,200 -1,050 Descending Boston Center
Sat 12:20:44 PM 41.3319 -73.5514 360° North 328 377 20,200 -1,000 Descending Boston Center
Sat 12:21:44 PM 41.4281 -73.5475 North 333 383 19,200 -950 Descending Boston Center
Sat 12:22:44 PM 41.5175 -73.5436 North 333 383 18,300 -850 Descending Boston Center
Sat 12:23:44 PM 41.6219 -73.5425 360° North 328 377 17,500 -850 Descending Boston Center
Sat 12:24:44 PM 41.7053 -73.5383 North 333 383 16,600 -1,100 Descending Boston Center
Sat 12:25:44 PM 41.8075 -73.5347 North 328 377 15,300 -1,350 Descending Boston Center
Sat 12:26:44 PM 41.8908 -73.5306 North 328 377 13,900 -1,500 Descending Boston Center
Sat 12:27:44 PM 41.9889 -73.5294 360° North 319 367 12,300 -1,450 Descending Boston Center
Sat 12:28:44 PM 42.0764 -73.5281 North 319 367 11,000 -907 Descending Boston Center
Sat 12:29:10 PM 42.1139 -73.5231 North 315 362 11,000  Level Boston Center
Sat 12:29:44 PM 42.1639 -73.5214 North 314 361 11,000 122 Level Boston Center
Sat 12:29:59 PM 42.1869 -73.5133 15° North 313 360 11,100  Climbing Boston Center
Sat 12:30:44 PM 42.2517 -73.5031 North 309 356 11,000  Descending Boston Center
Sat 12:31:00 PM 42.2744 -73.4981 North 313 360 11,100 -300 Climbing Boston Center
Sat 12:31:44 PM 42.3353 -73.4819 11° North 309 356 10,700 -1,558 Descending Boston Center
Sat 12:32:44 PM 42.4061 -73.4747 North 294 338 8,400 -2,329 Descending Boston Center
Sat 12:33:09 PM 42.4392 -73.5008 330° Northwest 270 311 7,400 -2,500 Descending Boston Center
Sat 12:33:44 PM 42.4700 -73.5406 316° Northwest 254 292 5,900 -2,237 Descending Boston Center
Sat 12:34:08 PM 42.4906 -73.5719 312° West 266 306 5,200 -900 Descending Boston Center
Sat 12:34:44 PM 42.5153 -73.6061 314° West 259 298 5,000 -98 Descending Boston Center
Sat 12:35:09 PM 42.5400 -73.6406 314° West 259 298 5,100 -300 Climbing Boston Center
Sat 12:35:44 PM 42.5667 -73.6775 314° West 242 278 4,700 -600 Descending Boston Center
Sat 12:36:09 PM 42.5850 -73.7033 314° West 218 251 4,500 -1,000 Descending Boston Center
Sat 12:36:44 PM 42.6078 -73.7350 314° West 227 261 3,700 -1,091 Descending Boston Center
Sat 12:37:04 PM 42.6200 -73.7550 310° West 194 223 3,500 -600 Descending Boston Center

Login

Don't have an account? Register now (free) for customized features, flight alerts, and more!